Flight Track Log - Related Links

Times and Time Zones

All times are in EDT time to prevent confusion due to time zone crossing. See the ASQ5941 flight status page for this flight to view local times or setup timezone preferences in your user account.

Time Position Orientation Groundspeed Altitude Reporting Facility
EDT Latitude Longitude Course Direction KTS MPH feet Rate Location/Type
Thu 03:02:45 PM 42.0167 -87.8500 90° East 184 212 2,600  Level Chicago TRACON
Thu 03:03:45 PM 42.0500 -87.7833 56° Northeast 230 265 4,400 1,684 Climbing Chicago TRACON
Thu 03:04:39 PM 42.0333 -87.7000 105° East 270 311 5,800 1,846 Climbing Chicago TRACON
Thu 03:06:34 PM 42.0403 -87.5222 87° East 278 320 9,600 1,763 Climbing Chicago Center
Thu 03:07:36 PM 42.0578 -87.4136 78° East 295 339 11,000 1,403 Climbing Chicago Center
Thu 03:08:00 PM 42.1000 -87.0001 90° East  Level FlightAware Approximate
Thu 03:08:38 PM 42.0803 -87.2636 79° East 338 389 12,500  Level Chicago Center
Thu 03:09:40 PM 42.1014 -87.1314 78° East 358 412 14,000 1,440 Climbing Chicago Center
Thu 03:10:43 PM 42.1144 -86.9958 83° East 368 423 15,500 1,344 Climbing Chicago Center
Thu 03:11:45 PM 42.1192 -86.8544 87° East 377 434 16,800 1,403 Climbing Chicago Center
Thu 03:12:47 PM 42.1239 -86.7128 87° East 382 440 18,400 1,742 Climbing Chicago Center
Thu 03:13:49 PM 42.1297 -86.5489 87° East 380 437 20,400 1,645 Climbing Chicago Center
Thu 03:14:51 PM 42.1347 -86.4058 87° East 381 438 21,800 1,403 Climbing Chicago Center
Thu 03:15:53 PM 42.1397 -86.2628 87° East 383 441 23,300 1,403 Climbing Chicago Center
Thu 03:16:55 PM 42.1433 -86.1197 88° East 382 440 24,700 823 Climbing Chicago Center
Thu 03:17:57 PM 42.1422 -85.9500 90° East 399 459 25,000 145 Climbing Chicago Center
Thu 03:18:59 PM 42.1400 -85.7872 91° East 426 490 25,000  Level Chicago Center
Thu 03:20:01 PM 42.1383 -85.6131 91° East 456 525 25,000  Level Chicago Center
Thu 03:21:04 PM 42.1369 -85.4356 91° East 472 543 25,000  Level Chicago Center
Thu 03:21:45 PM 42.1383 -85.2994 89° East 475 547 25,000  Level Cleveland Center
Thu 03:22:45 PM 42.1372 -85.1200 90° East 480 552 25,000  Level Cleveland Center
Thu 03:23:45 PM 42.1339 -84.9322 91° East 485 558 25,000  Level Cleveland Center
Thu 03:24:45 PM 42.1303 -84.7497 91° East 485 558 25,000  Level Cleveland Center
Thu 03:25:45 PM 42.1244 -84.5644 92° East 485 558 25,000  Level Cleveland Center
Thu 03:26:45 PM 42.1269 -84.3631 89° East 490 564 25,000  Level Cleveland Center
Thu 03:27:45 PM 42.1489 -84.2019 80° East 490 564 25,000  Level Cleveland Center
Thu 03:28:45 PM 42.1711 -84.0211 81° East 490 564 25,000  Level Cleveland Center
Thu 03:29:45 PM 42.1833 -83.8142 85° East 501 577 25,000  Level Cleveland Center
Thu 03:30:45 PM 42.1781 -83.6317 92° East 496 571 25,000  Level Cleveland Center
Thu 03:31:45 PM 42.1744 -83.4439 91° East 496 571 25,000  Level Cleveland Center
Thu 03:32:45 PM 42.1664 -83.2531 93° East 496 571 25,000  Level Cleveland Center
Thu 03:33:45 PM 42.1622 -83.0678 92° East 503 579 25,000  Level Cleveland Center
Thu 03:34:45 PM 42.1558 -82.8800 93° East 498 573 25,000  Level Cleveland Center
Thu 03:35:45 PM 42.1492 -82.6892 93° East 498 573 25,000  Level Cleveland Center
Thu 03:36:45 PM 42.1419 -82.5042 93° East 498 573 25,000  Level Cleveland Center
Thu 03:37:45 PM 42.1344 -82.3136 93° East 498 573 25,000  Level Cleveland Center
Thu 03:38:45 PM 42.1247 -82.1258 94° East 498 573 25,000  Level Cleveland Center
Thu 03:39:45 PM 42.1186 -81.9436 93° East 498 573 25,000  Level Cleveland Center
Thu 03:40:45 PM 42.1083 -81.7558 94° East 503 579 25,000  Level Cleveland Center
Thu 03:41:45 PM 42.0997 -81.5625 93° East 503 579 25,000  Level Cleveland Center
Thu 03:42:45 PM 42.0906 -81.3778 94° East 497 572 25,000  Level Cleveland Center
Thu 03:43:45 PM 42.0833 -81.1903 93° East 497 572 25,000  Level Cleveland Center
Thu 03:44:45 PM 42.0739 -81.0056 94° East 496 571 25,000  Level Cleveland Center
Thu 03:45:45 PM 42.0639 -80.8378 95° East 501 577 25,000  Level Cleveland Center
Thu 03:46:45 PM 42.0536 -80.6503 94° East 501 577 25,000  Level Cleveland Center
Thu 03:47:45 PM 42.0433 -80.4631 94° East 502 578 25,000  Level Cleveland Center
Thu 03:48:45 PM 42.0347 -80.2756 93° East 502 578 25,000  Level Cleveland Center
Thu 03:49:45 PM 42.0214 -80.0883 95° East 497 572 25,000  Level Cleveland Center
Thu 03:50:45 PM 42.0100 -79.9042 95° East 499 574 25,000  Level Cleveland Center
Thu 03:51:45 PM 41.9983 -79.7114 95° East 499 574 25,000  Level Cleveland Center
Thu 03:52:45 PM 41.9864 -79.5244 95° East 499 574 25,000  Level Cleveland Center
Thu 03:53:45 PM 41.9719 -79.3375 96° East 499 574 25,000  Level Cleveland Center
Thu 03:54:45 PM 41.9614 -79.1450 94° East 504 580 25,000  Level Cleveland Center
Thu 03:55:45 PM 41.9486 -78.9583 95° East 504 580 25,000 -300 Level Cleveland Center
Thu 03:56:45 PM 41.9331 -78.7661 96° East 504 580 24,400 -700 Descending Cleveland Center
Thu 03:57:45 PM 41.9194 -78.5739 95° East 504 580 23,600 -700 Descending Cleveland Center
Thu 03:58:45 PM 41.9056 -78.3875 96° East 504 580 23,000 -300 Descending Cleveland Center
Thu 03:59:45 PM 41.8917 -78.2008 96° East 504 580 23,000  Level Cleveland Center
Thu 04:01:18 PM 41.8708 -77.9183 96° East 508 585 23,000  Level New York Center
Thu 04:02:18 PM 41.8228 -77.7433 110° East 502 578 23,000  Level New York Center
Thu 04:03:19 PM 41.7575 -77.5781 118° Southeast 495 570 23,000  Level New York Center
Thu 04:04:17 PM 41.6964 -77.4078 116° Southeast 502 578 23,000 -151 Level New York Center
Thu 04:05:18 PM 41.6728 -77.2278 100° East 497 572 22,700 -1,082 Descending New York Center
Thu 04:06:19 PM 41.6553 -77.0483 97° East 486 559 20,800 -1,916 Descending New York Center
Thu 04:07:17 PM 41.6356 -76.8689 98° East 486 559 18,900 -2,050 Descending New York Center
Thu 04:08:19 PM 41.6142 -76.6753 98° East 486 559 16,700 -2,218 Descending New York Center
Thu 04:09:16 PM 41.5964 -76.5267 99° East 467 537 14,500 -2,824 Descending New York Center
Thu 04:10:18 PM 41.5789 -76.3728 99° East 436 502 11,100 -2,479 Descending New York Center
Thu 04:11:17 PM 41.5628 -76.2272 98° East 375 432 9,500 -1,438 Descending New York Center
Thu 04:12:19 PM 41.5447 -76.1203 103° East 317 365 8,200 -1,438 Descending New York Center
Thu 04:13:18 PM 41.5200 -76.0186 108° East 294 338 6,600 -1,587 Descending New York Center
Thu 04:14:20 PM 41.4933 -75.9167 109° East 288 331 5,000 -1,240 Descending New York Center
Thu 04:15:19 PM 41.4681 -75.8236 110° East 283 326 4,100 -776 Descending New York Center
Thu 04:16:16 PM 41.4364 -75.7381 116° Southeast 265 305 3,500 -864 Descending New York Center
Thu 04:17:17 PM 41.3967 -75.6908 138° Southeast 199 229 2,400 2,727 Descending New York Center
Thu 04:18:17 PM 41.3611 -75.6911 180° South 154 177 9,000 3,246 Climbing New York Center
Thu 04:19:19 PM 41.3206 -75.6661 155° Southeast 154 177 9,000  Level New York Center
Thu 04:20:18 PM 41.2797 -75.6436 158° South 154 177 9,000  Level New York Center
Thu 04:21:18 PM 41.2392 -75.6186 155° Southeast 154 177 9,000  Level New York Center
Thu 04:22:19 PM 41.2147 -75.6058 159° South 154 177 9,000  Level New York Center
Thu 04:24:00 PM 41.3333 -75.7167 327° Northwest  Level FlightAware Approximate
Thu 04:31:00 PM 41.3385 -75.7234 327° Northwest  Level Estimated
Thu 04:32:00 PM 41.3333 -75.7167 327° Northwest  Level FlightAware Approximate
Thu 04:33:00 PM 41.3385 -75.7234 327° Northwest  Level Estimated
Thu 04:34:00 PM 41.3333 -75.7167 327° Northwest  Level FlightAware Approximate
Thu 04:35:00 PM 41.3385 -75.7234 327° Northwest  Level Estimated
Thu 04:36:00 PM 41.3333 -75.7167 327° Northwest  Level FlightAware Approximate
Thu 04:37:00 PM 41.3385 -75.7234 327° Northwest  Level Estimated
Thu 04:38:00 PM 41.3333 -75.7167 327° Northwest  Level FlightAware Approximate
Thu 04:39:00 PM 41.3385 -75.7234 327° Northwest  Level Estimated

Login

Don't have an account? Register now (free) for customized features, flight alerts, and more!